sensor_id;sensor_type;location;lat;lon;timestamp;pressure;altitude;pressure_sealevel;temperature;humidity
31062;BME280;17724;53.546;9.974;2022-10-16T00:03:29;100911.97;;;15.82;96.29
31062;BME280;17724;53.546;9.974;2022-10-16T00:07:30;100919.66;;;15.50;95.38
31062;BME280;17724;53.546;9.974;2022-10-16T00:11:33;100920.19;;;15.58;94.87
31062;BME280;17724;53.546;9.974;2022-10-16T00:15:36;100918.47;;;15.67;94.55
31062;BME280;17724;53.546;9.974;2022-10-16T00:19:36;100915.69;;;15.67;93.35
31062;BME280;17724;53.546;9.974;2022-10-16T00:23:37;100919.28;;;15.67;91.93
31062;BME280;17724;53.546;9.974;2022-10-16T00:27:38;100921.81;;;15.59;90.88
31062;BME280;17724;53.546;9.974;2022-10-16T00:31:38;100922.25;;;15.81;90.70
31062;BME280;17724;53.546;9.974;2022-10-16T00:35:38;100917.94;;;15.65;89.80
31062;BME280;17724;53.546;9.974;2022-10-16T00:39:39;100936.47;;;15.69;89.78
31062;BME280;17724;53.546;9.974;2022-10-16T00:47:45;100939.50;;;15.73;88.09
31062;BME280;17724;53.546;9.974;2022-10-16T00:51:52;100939.25;;;15.69;87.88
31062;BME280;17724;53.546;9.974;2022-10-16T00:55:53;100930.41;;;15.62;86.80
31062;BME280;17724;53.546;9.974;2022-10-16T00:59:54;100936.50;;;15.59;87.14
31062;BME280;17724;53.546;9.974;2022-10-16T01:03:55;100935.69;;;15.59;86.65
31062;BME280;17724;53.546;9.974;2022-10-16T01:08:31;100948.69;;;15.63;86.65
31062;BME280;17724;53.546;9.974;2022-10-16T01:16:49;100959.25;;;15.61;86.07
31062;BME280;17724;53.546;9.974;2022-10-16T01:20:54;100953.25;;;15.44;86.34
31062;BME280;17724;53.546;9.974;2022-10-16T01:25:00;100961.81;;;15.52;86.26
31062;BME280;17724;53.546;9.974;2022-10-16T01:33:28;100957.72;;;15.40;85.77
31062;BME280;17724;53.546;9.974;2022-10-16T01:37:38;100959.38;;;15.41;85.75
31062;BME280;17724;53.546;9.974;2022-10-16T01:41:48;100958.78;;;15.49;86.17
31062;BME280;17724;53.546;9.974;2022-10-16T01:45:52;100966.00;;;15.45;85.89
31062;BME280;17724;53.546;9.974;2022-10-16T01:49:53;100964.72;;;15.27;86.26
31062;BME280;17724;53.546;9.974;2022-10-16T01:53:58;100947.78;;;15.34;86.85
31062;BME280;17724;53.546;9.974;2022-10-16T01:58:01;100961.41;;;15.25;86.41
31062;BME280;17724;53.546;9.974;2022-10-16T02:02:07;100960.59;;;15.19;87.01
31062;BME280;17724;53.546;9.974;2022-10-16T02:06:09;100963.91;;;15.26;86.62
31062;BME280;17724;53.546;9.974;2022-10-16T02:10:10;100960.84;;;15.28;86.40
31062;BME280;17724;53.546;9.974;2022-10-16T02:14:10;100966.97;;;15.25;86.37
31062;BME280;17724;53.546;9.974;2022-10-16T02:18:11;100971.34;;;15.31;86.83
31062;BME280;17724;53.546;9.974;2022-10-16T02:22:28;100969.78;;;15.15;86.18
31062;BME280;17724;53.546;9.974;2022-10-16T02:26:41;100976.63;;;15.27;86.45
31062;BME280;17724;53.546;9.974;2022-10-16T02:30:48;100966.44;;;15.18;86.57
31062;BME280;17724;53.546;9.974;2022-10-16T02:34:51;100980.31;;;15.13;86.07
31062;BME280;17724;53.546;9.974;2022-10-16T02:38:52;100977.28;;;15.09;85.51
31062;BME280;17724;53.546;9.974;2022-10-16T02:42:54;100971.19;;;15.12;85.87
31062;BME280;17724;53.546;9.974;2022-10-16T02:46:54;100963.75;;;15.02;85.71
31062;BME280;17724;53.546;9.974;2022-10-16T02:50:55;100968.75;;;14.95;86.68
31062;BME280;17724;53.546;9.974;2022-10-16T02:54:55;100979.47;;;15.17;86.08
31062;BME280;17724;53.546;9.974;2022-10-16T02:58:56;100971.50;;;15.06;86.01
31062;BME280;17724;53.546;9.974;2022-10-16T03:02:56;100971.78;;;14.99;86.36
31062;BME280;17724;53.546;9.974;2022-10-16T03:06:56;100965.13;;;15.00;86.95
31062;BME280;17724;53.546;9.974;2022-10-16T03:10:57;100970.13;;;14.98;86.75
31062;BME280;17724;53.546;9.974;2022-10-16T03:14:57;100956.31;;;14.88;87.12
31062;BME280;17724;53.546;9.974;2022-10-16T03:18:58;100948.31;;;14.86;87.31
31062;BME280;17724;53.546;9.974;2022-10-16T03:22:58;100968.25;;;14.83;87.57
31062;BME280;17724;53.546;9.974;2022-10-16T03:26:59;100968.84;;;14.70;87.84
31062;BME280;17724;53.546;9.974;2022-10-16T03:31:00;100968.84;;;14.75;87.76
31062;BME280;17724;53.546;9.974;2022-10-16T03:35:00;100974.09;;;14.71;87.88
31062;BME280;17724;53.546;9.974;2022-10-16T03:39:00;100971.94;;;14.58;88.32
31062;BME280;17724;53.546;9.974;2022-10-16T03:43:01;100972.50;;;14.60;88.50
31062;BME280;17724;53.546;9.974;2022-10-16T03:47:01;100979.38;;;14.68;88.43
31062;BME280;17724;53.546;9.974;2022-10-16T03:51:02;100973.63;;;14.49;89.06
31062;BME280;17724;53.546;9.974;2022-10-16T03:55:02;100976.66;;;14.58;88.64
31062;BME280;17724;53.546;9.974;2022-10-16T03:59:03;100974.16;;;14.51;89.12
31062;BME280;17724;53.546;9.974;2022-10-16T04:03:03;100984.97;;;14.52;88.21
31062;BME280;17724;53.546;9.974;2022-10-16T04:07:04;100986.34;;;14.60;88.28
31062;BME280;17724;53.546;9.974;2022-10-16T04:11:05;100996.00;;;14.63;88.20
31062;BME280;17724;53.546;9.974;2022-10-16T04:15:06;101006.28;;;14.57;87.78
31062;BME280;17724;53.546;9.974;2022-10-16T04:19:06;101012.34;;;14.59;87.70
31062;BME280;17724;53.546;9.974;2022-10-16T04:23:06;101013.16;;;14.60;87.29
31062;BME280;17724;53.546;9.974;2022-10-16T04:27:07;101017.03;;;14.64;87.63
31062;BME280;17724;53.546;9.974;2022-10-16T04:31:07;101014.00;;;14.65;87.72
31062;BME280;17724;53.546;9.974;2022-10-16T04:35:08;101019.78;;;14.64;87.64
31062;BME280;17724;53.546;9.974;2022-10-16T04:39:08;101017.03;;;14.69;87.37
31062;BME280;17724;53.546;9.974;2022-10-16T04:43:09;101036.16;;;14.55;87.82
31062;BME280;17724;53.546;9.974;2022-10-16T04:47:09;101035.84;;;14.67;87.39
31062;BME280;17724;53.546;9.974;2022-10-16T04:51:10;101035.63;;;14.53;88.49
31062;BME280;17724;53.546;9.974;2022-10-16T04:55:11;101030.34;;;14.57;88.69
31062;BME280;17724;53.546;9.974;2022-10-16T04:59:11;101027.56;;;14.51;89.00
31062;BME280;17724;53.546;9.974;2022-10-16T05:03:12;101037.28;;;14.49;89.61
31062;BME280;17724;53.546;9.974;2022-10-16T05:07:13;101049.16;;;14.65;89.28
31062;BME280;17724;53.546;9.974;2022-10-16T05:11:14;101035.28;;;14.70;89.33
31062;BME280;17724;53.546;9.974;2022-10-16T05:15:14;101056.63;;;14.64;89.40
31062;BME280;17724;53.546;9.974;2022-10-16T05:19:15;101067.97;;;14.73;89.01
31062;BME280;17724;53.546;9.974;2022-10-16T05:23:15;101072.41;;;14.69;88.97
31062;BME280;17724;53.546;9.974;2022-10-16T05:27:15;101069.91;;;14.67;88.98
31062;BME280;17724;53.546;9.974;2022-10-16T05:31:19;101066.59;;;14.60;89.35
31062;BME280;17724;53.546;9.974;2022-10-16T05:35:20;101077.41;;;14.57;89.93
31062;BME280;17724;53.546;9.974;2022-10-16T05:39:20;101075.44;;;14.47;90.01
31062;BME280;17724;53.546;9.974;2022-10-16T05:43:21;101073.78;;;14.56;89.99
31062;BME280;17724;53.546;9.974;2022-10-16T05:47:21;101066.59;;;14.60;89.52
31062;BME280;17724;53.546;9.974;2022-10-16T05:51:22;101061.34;;;14.59;89.69
31062;BME280;17724;53.546;9.974;2022-10-16T05:55:24;101071.28;;;14.60;89.64
31062;BME280;17724;53.546;9.974;2022-10-16T05:59:25;101079.03;;;14.68;89.30
31062;BME280;17724;53.546;9.974;2022-10-16T06:03:25;101080.16;;;14.62;89.74
31062;BME280;17724;53.546;9.974;2022-10-16T06:07:26;101086.78;;;14.66;89.55
31062;BME280;17724;53.546;9.974;2022-10-16T06:11:31;101084.03;;;14.66;89.92
31062;BME280;17724;53.546;9.974;2022-10-16T06:15:32;101084.56;;;14.63;90.17
31062;BME280;17724;53.546;9.974;2022-10-16T06:19:32;101081.56;;;14.64;90.58
31062;BME280;17724;53.546;9.974;2022-10-16T06:23:32;101085.41;;;14.58;90.78
31062;BME280;17724;53.546;9.974;2022-10-16T06:27:33;101085.13;;;14.60;90.87
31062;BME280;17724;53.546;9.974;2022-10-16T06:31:33;101099.53;;;14.57;91.50
31062;BME280;17724;53.546;9.974;2022-10-16T06:35:34;101100.06;;;14.64;91.21
31062;BME280;17724;53.546;9.974;2022-10-16T06:39:34;101096.50;;;14.53;91.78
31062;BME280;17724;53.546;9.974;2022-10-16T06:43:34;101103.69;;;14.59;92.00
31062;BME280;17724;53.546;9.974;2022-10-16T06:47:37;101106.44;;;14.69;91.80
31062;BME280;17724;53.546;9.974;2022-10-16T06:51:38;101119.47;;;14.59;92.54
31062;BME280;17724;53.546;9.974;2022-10-16T06:55:41;101125.84;;;14.64;92.23
31062;BME280;17724;53.546;9.974;2022-10-16T06:59:41;101123.06;;;14.69;92.28
31062;BME280;17724;53.546;9.974;2022-10-16T07:03:43;101144.94;;;14.81;91.96
31062;BME280;17724;53.546;9.974;2022-10-16T07:07:44;101144.38;;;14.84;91.97
31062;BME280;17724;53.546;9.974;2022-10-16T07:11:44;101152.66;;;14.89;92.79
31062;BME280;17724;53.546;9.974;2022-10-16T07:15:44;101156.81;;;14.97;92.71
31062;BME280;17724;53.546;9.974;2022-10-16T07:19:45;101160.13;;;14.94;93.15
31062;BME280;17724;53.546;9.974;2022-10-16T07:23:45;101167.84;;;15.07;92.97
31062;BME280;17724;53.546;9.974;2022-10-16T07:27:50;101167.00;;;15.12;92.67
31062;BME280;17724;53.546;9.974;2022-10-16T07:31:50;101173.66;;;15.26;92.16
31062;BME280;17724;53.546;9.974;2022-10-16T07:35:51;101169.50;;;15.23;92.15
31062;BME280;17724;53.546;9.974;2022-10-16T07:39:52;101178.59;;;15.39;91.58
31062;BME280;17724;53.546;9.974;2022-10-16T07:43:53;101191.63;;;15.39;91.59
31062;BME280;17724;53.546;9.974;2022-10-16T07:57:50;101202.09;;;15.67;90.52
31062;BME280;17724;53.546;9.974;2022-10-16T08:01:50;101199.63;;;15.66;91.04
31062;BME280;17724;53.546;9.974;2022-10-16T08:05:51;101203.47;;;15.60;90.65
31062;BME280;17724;53.546;9.974;2022-10-16T08:09:52;101211.53;;;15.61;90.42
31062;BME280;17724;53.546;9.974;2022-10-16T08:13:52;101209.59;;;15.72;90.29
31062;BME280;17724;53.546;9.974;2022-10-16T08:18:01;101223.69;;;15.75;89.91
31062;BME280;17724;53.546;9.974;2022-10-16T08:22:02;101215.13;;;15.67;89.94
31062;BME280;17724;53.546;9.974;2022-10-16T08:26:05;101235.31;;;15.83;89.27
31062;BME280;17724;53.546;9.974;2022-10-16T08:30:07;101232.84;;;15.81;89.61
31062;BME280;17724;53.546;9.974;2022-10-16T08:34:07;101222.22;;;15.98;89.53
31062;BME280;17724;53.546;9.974;2022-10-16T08:38:08;101236.13;;;15.93;89.21
31062;BME280;17724;53.546;9.974;2022-10-16T08:46:48;101223.84;;;16.10;88.30
31062;BME280;17724;53.546;9.974;2022-10-16T08:50:52;101231.53;;;16.28;88.43
31062;BME280;17724;53.546;9.974;2022-10-16T08:54:55;101240.63;;;16.34;87.94
31062;BME280;17724;53.546;9.974;2022-10-16T08:58:57;101245.41;;;16.23;87.49
31062;BME280;17724;53.546;9.974;2022-10-16T09:03:17;101247.75;;;16.50;87.11
31062;BME280;17724;53.546;9.974;2022-10-16T09:19:51;101265.22;;;16.56;85.25
31062;BME280;17724;53.546;9.974;2022-10-16T09:23:54;101253.81;;;16.57;85.60
31062;BME280;17724;53.546;9.974;2022-10-16T09:27:57;101269.31;;;16.73;84.36
31062;BME280;17724;53.546;9.974;2022-10-16T09:32:10;101286.19;;;16.82;83.13
31062;BME280;17724;53.546;9.974;2022-10-16T09:36:12;101274.91;;;17.03;82.55
31062;BME280;17724;53.546;9.974;2022-10-16T09:40:33;101292.38;;;17.08;82.44
31062;BME280;17724;53.546;9.974;2022-10-16T09:44:35;101283.22;;;17.08;80.74
31062;BME280;17724;53.546;9.974;2022-10-16T09:48:42;101283.69;;;17.15;80.23
31062;BME280;17724;53.546;9.974;2022-10-16T09:52:43;101284.94;;;17.04;80.45
31062;BME280;17724;53.546;9.974;2022-10-16T09:56:44;101297.59;;;17.15;80.58
31062;BME280;17724;53.546;9.974;2022-10-16T10:00:53;101303.50;;;17.08;80.42
31062;BME280;17724;53.546;9.974;2022-10-16T10:04:54;101303.19;;;17.10;80.91
31062;BME280;17724;53.546;9.974;2022-10-16T10:09:17;101309.53;;;17.20;80.32
31062;BME280;17724;53.546;9.974;2022-10-16T10:13:20;101319.13;;;16.99;80.45
31062;BME280;17724;53.546;9.974;2022-10-16T10:17:23;101317.66;;;17.07;80.92
31062;BME280;17724;53.546;9.974;2022-10-16T10:21:24;101324.88;;;17.13;80.58
31062;BME280;17724;53.546;9.974;2022-10-16T10:25:40;101321.41;;;17.26;80.98
31062;BME280;17724;53.546;9.974;2022-10-16T10:30:06;101333.97;;;17.23;80.65
31062;BME280;17724;53.546;9.974;2022-10-16T10:38:45;101330.19;;;17.43;78.52
31062;BME280;17724;53.546;9.974;2022-10-16T10:42:50;101332.34;;;17.52;77.67
31062;BME280;17724;53.546;9.974;2022-10-16T10:46:57;101339.03;;;17.80;77.18
31062;BME280;17724;53.546;9.974;2022-10-16T10:51:07;101333.22;;;17.71;75.67
31062;BME280;17724;53.546;9.974;2022-10-16T11:08:13;101335.31;;;17.60;73.42
31062;BME280;17724;53.546;9.974;2022-10-16T11:12:27;101340.13;;;17.84;74.54
31062;BME280;17724;53.546;9.974;2022-10-16T11:16:34;101336.44;;;17.88;72.67
31062;BME280;17724;53.546;9.974;2022-10-16T11:20:49;101341.13;;;18.17;73.19
31062;BME280;17724;53.546;9.974;2022-10-16T11:25:21;101351.19;;;18.37;69.89
31062;BME280;17724;53.546;9.974;2022-10-16T11:29:29;101354.63;;;18.29;69.80
31062;BME280;17724;53.546;9.974;2022-10-16T11:39:11;101369.28;;;18.39;70.21
31062;BME280;17724;53.546;9.974;2022-10-16T11:43:26;101374.63;;;18.55;70.07
31062;BME280;17724;53.546;9.974;2022-10-16T11:47:38;101383.88;;;18.50;69.89
31062;BME280;17724;53.546;9.974;2022-10-16T11:51:45;101388.03;;;18.53;69.56
31062;BME280;17724;53.546;9.974;2022-10-16T11:55:49;101384.06;;;18.35;69.29
31062;BME280;17724;53.546;9.974;2022-10-16T11:59:54;101396.09;;;18.30;70.05
31062;BME280;17724;53.546;9.974;2022-10-16T12:08:17;101404.19;;;18.27;69.06
31062;BME280;17724;53.546;9.974;2022-10-16T12:12:38;101408.78;;;18.41;69.04
31062;BME280;17724;53.546;9.974;2022-10-16T12:20:56;101427.19;;;18.13;69.95
31062;BME280;17724;53.546;9.974;2022-10-16T12:25:20;101434.59;;;17.94;69.91
31062;BME280;17724;53.546;9.974;2022-10-16T12:29:40;101429.53;;;18.01;68.52
31062;BME280;17724;53.546;9.974;2022-10-16T12:33:57;101441.56;;;17.96;66.83
31062;BME280;17724;53.546;9.974;2022-10-16T12:50:38;101465.03;;;18.14;64.22
31062;BME280;17724;53.546;9.974;2022-10-16T12:54:40;101463.94;;;18.10;63.68
31062;BME280;17724;53.546;9.974;2022-10-16T13:16:14;101483.34;;;18.20;63.97
31062;BME280;17724;53.546;9.974;2022-10-16T13:25:00;101496.34;;;18.30;65.24
31062;BME280;17724;53.546;9.974;2022-10-16T13:29:03;101502.41;;;18.37;65.34
31062;BME280;17724;53.546;9.974;2022-10-16T13:33:13;101507.66;;;18.39;64.60
31062;BME280;17724;53.546;9.974;2022-10-16T13:37:19;101515.75;;;18.40;63.41
31062;BME280;17724;53.546;9.974;2022-10-16T13:41:20;101518.78;;;18.44;62.43
31062;BME280;17724;53.546;9.974;2022-10-16T13:45:25;101525.78;;;18.65;63.19
31062;BME280;17724;53.546;9.974;2022-10-16T13:49:25;101523.56;;;18.62;62.17
31062;BME280;17724;53.546;9.974;2022-10-16T13:53:26;101530.47;;;18.75;62.15
31062;BME280;17724;53.546;9.974;2022-10-16T13:57:27;101532.34;;;18.80;60.93
31062;BME280;17724;53.546;9.974;2022-10-16T14:01:54;101546.63;;;18.97;60.74
31062;BME280;17724;53.546;9.974;2022-10-16T14:06:01;101540.81;;;18.93;60.55
31062;BME280;17724;53.546;9.974;2022-10-16T14:10:18;101561.94;;;18.76;60.74
31062;BME280;17724;53.546;9.974;2022-10-16T14:14:22;101560.50;;;18.49;62.76
31062;BME280;17724;53.546;9.974;2022-10-16T14:18:25;101557.25;;;18.66;63.06
31062;BME280;17724;53.546;9.974;2022-10-16T14:26:41;101566.84;;;18.55;62.15
31062;BME280;17724;53.546;9.974;2022-10-16T14:31:23;101585.50;;;18.54;62.10
31062;BME280;17724;53.546;9.974;2022-10-16T14:35:36;101588.16;;;18.69;62.63
31062;BME280;17724;53.546;9.974;2022-10-16T14:39:37;101600.97;;;18.70;61.19
31062;BME280;17724;53.546;9.974;2022-10-16T14:43:40;101601.66;;;18.57;61.63
31062;BME280;17724;53.546;9.974;2022-10-16T14:47:56;101597.44;;;18.60;62.30
31062;BME280;17724;53.546;9.974;2022-10-16T14:51:57;101608.88;;;18.58;61.57
31062;BME280;17724;53.546;9.974;2022-10-16T14:55:58;101612.00;;;18.52;61.23
31062;BME280;17724;53.546;9.974;2022-10-16T14:59:58;101605.69;;;18.41;61.60
31062;BME280;17724;53.546;9.974;2022-10-16T15:03:59;101615.06;;;18.50;61.88
31062;BME280;17724;53.546;9.974;2022-10-16T15:07:59;101625.06;;;18.56;61.96
31062;BME280;17724;53.546;9.974;2022-10-16T15:12:00;101621.22;;;18.47;62.65
31062;BME280;17724;53.546;9.974;2022-10-16T15:16:00;101629.38;;;18.38;63.34
31062;BME280;17724;53.546;9.974;2022-10-16T15:20:00;101635.19;;;18.42;63.14
31062;BME280;17724;53.546;9.974;2022-10-16T15:24:01;101631.13;;;18.29;63.76
31062;BME280;17724;53.546;9.974;2022-10-16T15:28:03;101641.44;;;18.29;63.65
31062;BME280;17724;53.546;9.974;2022-10-16T15:32:03;101649.31;;;18.16;63.42
31062;BME280;17724;53.546;9.974;2022-10-16T15:36:04;101650.00;;;18.37;64.99
31062;BME280;17724;53.546;9.974;2022-10-16T15:40:05;101646.53;;;18.56;64.29
31062;BME280;17724;53.546;9.974;2022-10-16T15:44:05;101662.47;;;18.45;62.92
31062;BME280;17724;53.546;9.974;2022-10-16T15:48:06;101660.19;;;18.52;63.23
31062;BME280;17724;53.546;9.974;2022-10-16T15:52:06;101669.28;;;18.29;62.40
31062;BME280;17724;53.546;9.974;2022-10-16T15:56:09;101668.72;;;18.27;63.93
31062;BME280;17724;53.546;9.974;2022-10-16T16:00:19;101683.91;;;18.05;62.40
31062;BME280;17724;53.546;9.974;2022-10-16T16:04:25;101680.41;;;18.29;63.38
31062;BME280;17724;53.546;9.974;2022-10-16T16:08:25;101690.63;;;18.43;63.93
31062;BME280;17724;53.546;9.974;2022-10-16T16:12:26;101690.94;;;18.37;63.73
31062;BME280;17724;53.546;9.974;2022-10-16T16:16:26;101697.38;;;18.32;63.86
31062;BME280;17724;53.546;9.974;2022-10-16T16:20:27;101690.72;;;18.28;64.67
31062;BME280;17724;53.546;9.974;2022-10-16T16:24:27;101703.03;;;18.17;63.11
31062;BME280;17724;53.546;9.974;2022-10-16T16:28:27;101707.22;;;18.14;63.88
31062;BME280;17724;53.546;9.974;2022-10-16T16:32:28;101711.94;;;18.19;64.26
31062;BME280;17724;53.546;9.974;2022-10-16T16:36:28;101721.16;;;18.14;64.36
31062;BME280;17724;53.546;9.974;2022-10-16T16:40:29;101731.75;;;18.12;64.47
31062;BME280;17724;53.546;9.974;2022-10-16T16:44:29;101738.97;;;18.13;64.38
31062;BME280;17724;53.546;9.974;2022-10-16T16:48:31;101745.72;;;18.02;65.84
31062;BME280;17724;53.546;9.974;2022-10-16T16:52:33;101749.91;;;18.00;66.38
31062;BME280;17724;53.546;9.974;2022-10-16T16:56:34;101763.56;;;17.96;66.53
31062;BME280;17724;53.546;9.974;2022-10-16T17:00:35;101769.13;;;17.91;66.21
31062;BME280;17724;53.546;9.974;2022-10-16T17:04:35;101784.19;;;17.85;66.66
31062;BME280;17724;53.546;9.974;2022-10-16T17:08:36;101785.06;;;17.80;66.60
31062;BME280;17724;53.546;9.974;2022-10-16T17:12:37;101781.16;;;17.76;66.86
31062;BME280;17724;53.546;9.974;2022-10-16T17:16:38;101798.13;;;17.75;66.58
31062;BME280;17724;53.546;9.974;2022-10-16T17:20:39;101796.72;;;17.72;67.85
31062;BME280;17724;53.546;9.974;2022-10-16T17:24:40;101803.69;;;17.69;67.70
31062;BME280;17724;53.546;9.974;2022-10-16T17:28:41;101812.88;;;17.75;69.71
31062;BME280;17724;53.546;9.974;2022-10-16T17:32:42;101816.47;;;17.70;68.24
31062;BME280;17724;53.546;9.974;2022-10-16T17:36:42;101817.59;;;17.69;67.60
31062;BME280;17724;53.546;9.974;2022-10-16T17:40:43;101828.72;;;17.59;66.59
31062;BME280;17724;53.546;9.974;2022-10-16T17:44:43;101840.72;;;17.60;67.74
31062;BME280;17724;53.546;9.974;2022-10-16T17:48:45;101845.97;;;17.51;68.47
31062;BME280;17724;53.546;9.974;2022-10-16T17:52:46;101853.25;;;17.52;68.80
31062;BME280;17724;53.546;9.974;2022-10-16T17:56:46;101872.97;;;17.45;68.08
31062;BME280;17724;53.546;9.974;2022-10-16T18:00:47;101878.25;;;17.37;68.42
31062;BME280;17724;53.546;9.974;2022-10-16T18:04:49;101872.16;;;17.30;69.01
31062;BME280;17724;53.546;9.974;2022-10-16T18:08:53;101876.31;;;17.22;69.76
31062;BME280;17724;53.546;9.974;2022-10-16T18:12:54;101871.28;;;17.19;70.10
31062;BME280;17724;53.546;9.974;2022-10-16T18:16:56;101875.44;;;17.11;70.37
31062;BME280;17724;53.546;9.974;2022-10-16T18:20:58;101872.13;;;17.09;70.85
31062;BME280;17724;53.546;9.974;2022-10-16T18:24:58;101876.56;;;17.05;71.41
31062;BME280;17724;53.546;9.974;2022-10-16T18:28:59;101887.94;;;16.98;72.22
31062;BME280;17724;53.546;9.974;2022-10-16T18:33:01;101906.84;;;16.96;72.66
31062;BME280;17724;53.546;9.974;2022-10-16T18:37:01;101906.00;;;16.91;72.63
31062;BME280;17724;53.546;9.974;2022-10-16T18:41:02;101915.16;;;16.86;72.68
31062;BME280;17724;53.546;9.974;2022-10-16T18:45:06;101915.97;;;16.82;72.64
31062;BME280;17724;53.546;9.974;2022-10-16T18:49:07;101917.63;;;16.83;72.71
31062;BME280;17724;53.546;9.974;2022-10-16T18:53:08;101917.63;;;16.83;72.87
31062;BME280;17724;53.546;9.974;2022-10-16T18:57:08;101931.81;;;16.91;72.32
31062;BME280;17724;53.546;9.974;2022-10-16T19:01:13;101925.44;;;16.86;72.27
31062;BME280;17724;53.546;9.974;2022-10-16T19:05:14;101914.31;;;16.81;72.21
31062;BME280;17724;53.546;9.974;2022-10-16T19:09:16;101926.53;;;16.80;72.31
31062;BME280;17724;53.546;9.974;2022-10-16T19:13:17;101920.38;;;16.72;73.22
31062;BME280;17724;53.546;9.974;2022-10-16T19:17:17;101922.56;;;16.70;73.98
31062;BME280;17724;53.546;9.974;2022-10-16T19:21:18;101929.53;;;16.68;74.28
31062;BME280;17724;53.546;9.974;2022-10-16T19:25:19;101926.44;;;16.64;74.07
31062;BME280;17724;53.546;9.974;2022-10-16T19:29:22;101929.47;;;16.58;74.10
31062;BME280;17724;53.546;9.974;2022-10-16T19:33:23;101934.50;;;16.66;74.47
31062;BME280;17724;53.546;9.974;2022-10-16T19:37:23;101938.94;;;16.62;74.24
31062;BME280;17724;53.546;9.974;2022-10-16T19:41:28;101951.94;;;16.51;74.37
31062;BME280;17724;53.546;9.974;2022-10-16T19:45:29;101944.91;;;16.38;74.47
31062;BME280;17724;53.546;9.974;2022-10-16T19:49:29;101958.28;;;16.41;74.78
31062;BME280;17724;53.546;9.974;2022-10-16T19:53:30;101965.47;;;16.37;75.73
31062;BME280;17724;53.546;9.974;2022-10-16T19:57:35;101964.34;;;16.38;75.48
31062;BME280;17724;53.546;9.974;2022-10-16T20:01:36;101953.00;;;15.97;76.24
31062;BME280;17724;53.546;9.974;2022-10-16T20:05:36;101950.06;;;15.77;76.96
31062;BME280;17724;53.546;9.974;2022-10-16T20:09:36;101964.06;;;15.92;77.64
31062;BME280;17724;53.546;9.974;2022-10-16T20:13:37;101962.78;;;16.05;77.92
31062;BME280;17724;53.546;9.974;2022-10-16T20:17:37;101963.09;;;16.14;77.55
31062;BME280;17724;53.546;9.974;2022-10-16T20:21:38;101966.47;;;16.16;76.95
31062;BME280;17724;53.546;9.974;2022-10-16T20:25:40;101976.03;;;15.98;77.79
31062;BME280;17724;53.546;9.974;2022-10-16T20:29:41;101983.69;;;15.81;77.31
31062;BME280;17724;53.546;9.974;2022-10-16T20:33:41;101975.66;;;15.57;77.52
31062;BME280;17724;53.546;9.974;2022-10-16T20:37:42;101981.31;;;15.67;77.77
31062;BME280;17724;53.546;9.974;2022-10-16T20:41:48;101992.31;;;15.84;77.12
31062;BME280;17724;53.546;9.974;2022-10-16T20:45:58;101985.47;;;15.97;77.06
31062;BME280;17724;53.546;9.974;2022-10-16T20:49:59;101994.00;;;15.90;76.85
31062;BME280;17724;53.546;9.974;2022-10-16T20:54:02;101996.78;;;15.90;77.72
31062;BME280;17724;53.546;9.974;2022-10-16T20:58:03;101999.50;;;15.80;77.48
31062;BME280;17724;53.546;9.974;2022-10-16T21:02:04;102008.72;;;15.64;78.23
31062;BME280;17724;53.546;9.974;2022-10-16T21:06:09;102003.72;;;15.61;78.76
31062;BME280;17724;53.546;9.974;2022-10-16T21:10:09;102008.63;;;15.81;78.51
31062;BME280;17724;53.546;9.974;2022-10-16T21:14:10;102030.56;;;15.82;78.76
31062;BME280;17724;53.546;9.974;2022-10-16T21:18:10;102028.84;;;15.76;78.63
31062;BME280;17724;53.546;9.974;2022-10-16T21:22:12;102030.84;;;15.59;78.77
31062;BME280;17724;53.546;9.974;2022-10-16T21:26:12;102035.88;;;15.62;78.68
31062;BME280;17724;53.546;9.974;2022-10-16T21:30:12;102038.84;;;15.55;78.90
31062;BME280;17724;53.546;9.974;2022-10-16T21:34:13;102037.28;;;15.37;79.96
31062;BME280;17724;53.546;9.974;2022-10-16T21:38:13;102045.63;;;15.15;81.74
31062;BME280;17724;53.546;9.974;2022-10-16T21:42:13;102043.31;;;15.07;82.48
31062;BME280;17724;53.546;9.974;2022-10-16T21:46:16;102031.00;;;14.98;82.88
31062;BME280;17724;53.546;9.974;2022-10-16T21:50:17;102029.59;;;15.17;82.45
31062;BME280;17724;53.546;9.974;2022-10-16T21:54:20;102036.78;;;15.18;81.71
31062;BME280;17724;53.546;9.974;2022-10-16T21:58:21;102047.88;;;15.18;81.93
31062;BME280;17724;53.546;9.974;2022-10-16T22:02:21;102048.84;;;15.29;81.63
31062;BME280;17724;53.546;9.974;2022-10-16T22:06:24;102033.25;;;15.23;81.83
31062;BME280;17724;53.546;9.974;2022-10-16T22:10:26;102035.81;;;15.30;81.78
31062;BME280;17724;53.546;9.974;2022-10-16T22:14:26;102039.88;;;15.22;81.95
31062;BME280;17724;53.546;9.974;2022-10-16T22:18:27;102051.38;;;15.09;82.62
31062;BME280;17724;53.546;9.974;2022-10-16T22:22:27;102038.81;;;15.01;83.46
31062;BME280;17724;53.546;9.974;2022-10-16T22:26:28;102053.94;;;14.93;83.58
31062;BME280;17724;53.546;9.974;2022-10-16T22:30:28;102040.16;;;14.76;84.46
31062;BME280;17724;53.546;9.974;2022-10-16T22:34:28;102044.72;;;14.66;85.00
31062;BME280;17724;53.546;9.974;2022-10-16T22:38:30;102048.69;;;14.02;87.58
31062;BME280;17724;53.546;9.974;2022-10-16T22:42:31;102028.88;;;14.27;86.82
31062;BME280;17724;53.546;9.974;2022-10-16T22:46:31;102031.81;;;14.04;87.71
31062;BME280;17724;53.546;9.974;2022-10-16T22:50:32;102029.63;;;14.40;86.29
31062;BME280;17724;53.546;9.974;2022-10-16T22:54:32;102033.75;;;14.37;86.14
31062;BME280;17724;53.546;9.974;2022-10-16T22:58:33;102030.38;;;14.52;85.32
31062;BME280;17724;53.546;9.974;2022-10-16T23:02:33;102034.13;;;14.63;85.45